Tres Pontas, Brazil
Current Conditions -  °F | °C
As of 8:00 PM on Saturday 20 Dec 2014 (Local Time) from SBGW Reporting Station
Clear Clear  
Wind Chill: 82°   Ceiling: Unl
Heat Index: 85°   Visibility: 6mi
Dew Point: 66°   Wind: 5mph
Humidity: 58%   Direction: 60°ENE
Pressure: 29.85"   Gusts: NA
Location:  21.36°S, 45.52°W
Report Text: SBGW 202200Z 06004KT CAVOK 28/19 Q1011
Loading
Personal Weather Stations






























Interactive Weather Map New forecast layout! Learn more

10-Day Weather Forecast

Advertisements
Track Severe Weather on mobile